createdAt,value
2019-03-26T00:00:08.743Z,16.87
2019-03-26T00:02:38.501Z,14.00
2019-03-26T00:05:07.817Z,16.27
2019-03-26T00:07:37.388Z,13.43
2019-03-26T00:10:07.158Z,11.03
2019-03-26T00:12:37.234Z,14.63
2019-03-26T00:15:06.939Z,11.97
2019-03-26T00:17:36.533Z,10.37
2019-03-26T00:20:06.266Z,17.07
2019-03-26T00:22:35.967Z,12.97
2019-03-26T00:25:05.508Z,17.97
2019-03-26T00:27:35.030Z,18.20
2019-03-26T00:30:04.644Z,14.20
2019-03-26T00:32:34.549Z,14.90
2019-03-26T00:35:04.882Z,11.43
2019-03-26T00:37:34.557Z,16.77
2019-03-26T00:40:04.606Z,14.67
2019-03-26T00:42:33.864Z,20.17
2019-03-26T00:45:03.323Z,9.93
2019-03-26T00:47:32.809Z,15.40
2019-03-26T00:50:02.333Z,22.50
2019-03-26T00:52:31.816Z,14.30
2019-03-26T00:55:01.348Z,15.97
2019-03-26T00:57:30.576Z,12.97
2019-03-26T01:00:00.471Z,17.70
2019-03-26T01:02:31.496Z,14.25
2019-03-26T01:05:04.716Z,15.63
2019-03-26T01:07:34.144Z,17.83
2019-03-26T01:10:03.828Z,18.30
2019-03-26T01:12:33.168Z,15.97
2019-03-26T01:15:03.279Z,20.10
2019-03-26T01:17:32.725Z,18.70
2019-03-26T01:20:02.199Z,18.37
2019-03-26T01:22:31.387Z,20.97
2019-03-26T01:25:00.813Z,24.47
2019-03-26T01:27:30.294Z,15.17
2019-03-26T01:30:00.335Z,15.50
2019-03-26T01:32:29.971Z,21.70
2019-03-26T01:34:59.544Z,16.27
2019-03-26T01:37:29.008Z,17.20
2019-03-26T01:39:58.641Z,17.47
2019-03-26T01:42:28.184Z,15.83
2019-03-26T01:44:57.680Z,12.87
2019-03-26T01:47:27.170Z,16.20
2019-03-26T01:49:56.997Z,16.73
2019-03-26T01:52:26.249Z,18.17
2019-03-26T01:54:55.433Z,20.17
2019-03-26T01:57:25.057Z,15.90
2019-03-26T01:59:54.865Z,16.30
2019-03-26T02:02:24.357Z,17.57
2019-03-26T02:04:59.976Z,22.20
2019-03-26T02:07:24.694Z,16.97
2019-03-26T02:09:54.137Z,16.90
2019-03-26T02:12:23.901Z,18.77
2019-03-26T02:14:53.434Z,24.43
2019-03-26T02:17:22.637Z,21.17
2019-03-26T02:19:52.388Z,19.03
2019-03-26T02:22:21.870Z,19.87
2019-03-26T02:24:51.366Z,29.87
2019-03-26T02:27:20.601Z,22.20
2019-03-26T02:29:50.053Z,21.83
2019-03-26T02:32:19.633Z,24.33
2019-03-26T02:34:48.867Z,20.97
2019-03-26T02:37:18.117Z,22.20
2019-03-26T02:39:47.815Z,24.00
2019-03-26T02:42:17.604Z,25.57
2019-03-26T02:44:47.149Z,21.90
2019-03-26T02:47:16.410Z,20.80
2019-03-26T02:49:45.712Z,23.33
2019-03-26T02:52:15.226Z,27.13
2019-03-26T02:54:44.969Z,24.37
2019-03-26T02:57:14.478Z,22.27
2019-03-26T02:59:43.971Z,25.70
2019-03-26T03:02:13.178Z,21.47
2019-03-26T03:04:42.927Z,27.10
2019-03-26T03:07:12.406Z,18.87
2019-03-26T03:09:42.245Z,22.83
2019-03-26T03:12:11.457Z,24.20
2019-03-26T03:14:40.928Z,18.80
2019-03-26T03:17:10.752Z,23.50
2019-03-26T03:19:39.917Z,24.00
2019-03-26T03:22:09.273Z,20.60
2019-03-26T03:24:38.776Z,16.70
2019-03-26T03:27:08.807Z,23.03
2019-03-26T03:29:38.434Z,23.43
2019-03-26T03:32:07.717Z,20.87
2019-03-26T03:34:37.026Z,24.93
2019-03-26T03:37:06.942Z,19.30
2019-03-26T03:39:36.430Z,20.30
2019-03-26T03:42:06.268Z,16.53
2019-03-26T03:44:36.167Z,36.73
2019-03-26T03:47:05.826Z,27.00
2019-03-26T03:49:35.570Z,27.07
2019-03-26T03:52:05.458Z,28.43
2019-03-26T03:54:36.476Z,25.93
2019-03-26T03:57:06.185Z,25.07
2019-03-26T03:59:35.667Z,25.90
2019-03-26T04:02:04.921Z,24.03
2019-03-26T04:04:35.337Z,22.03
2019-03-26T04:07:04.817Z,33.43
2019-03-26T04:09:34.289Z,31.07
2019-03-26T04:12:03.902Z,26.33
2019-03-26T04:14:33.443Z,31.90
2019-03-26T04:17:02.926Z,30.90
2019-03-26T04:19:32.644Z,25.40
2019-03-26T04:22:02.261Z,25.37
2019-03-26T04:24:32.450Z,25.43
2019-03-26T04:27:01.660Z,24.97
2019-03-26T04:29:30.888Z,28.77
2019-03-26T04:32:00.251Z,27.03
2019-03-26T04:34:29.701Z,33.60
2019-03-26T04:36:58.891Z,23.03
2019-03-26T04:39:28.731Z,31.70
2019-03-26T04:41:58.754Z,29.17
2019-03-26T04:44:27.967Z,24.73
2019-03-26T04:46:57.824Z,25.10
2019-03-26T04:49:27.016Z,29.33
2019-03-26T04:51:56.885Z,29.37
2019-03-26T04:54:26.752Z,21.20
2019-03-26T04:56:55.920Z,23.40
2019-03-26T04:59:25.107Z,27.83
2019-03-26T05:01:54.742Z,21.80
2019-03-26T05:04:24.215Z,26.57
2019-03-26T05:06:53.701Z,20.70
2019-03-26T05:09:23.532Z,21.60
2019-03-26T05:11:53.922Z,25.70
2019-03-26T05:14:23.729Z,21.10
2019-03-26T05:16:52.988Z,18.27
2019-03-26T05:19:22.963Z,21.90
2019-03-26T05:21:52.208Z,20.60
2019-03-26T05:24:21.409Z,20.60
2019-03-26T05:26:50.644Z,19.33
2019-03-26T05:29:21.142Z,20.37
2019-03-26T05:31:51.021Z,20.73
2019-03-26T05:34:21.344Z,19.00
2019-03-26T05:36:51.874Z,24.03
2019-03-26T05:39:21.694Z,24.57
2019-03-26T05:41:51.608Z,25.97
2019-03-26T05:44:20.822Z,22.93
2019-03-26T05:46:50.309Z,20.50
2019-03-26T05:49:19.565Z,17.67
2019-03-26T05:51:49.113Z,15.77
2019-03-26T05:54:18.674Z,21.20
2019-03-26T05:56:48.576Z,14.43
2019-03-26T05:59:18.561Z,18.93
2019-03-26T06:01:48.108Z,15.70
2019-03-26T06:04:17.389Z,13.43
2019-03-26T06:06:47.169Z,14.50
2019-03-26T06:09:17.112Z,17.10
2019-03-26T06:11:46.721Z,12.83
2019-03-26T06:14:16.187Z,22.97
2019-03-26T06:16:45.454Z,14.20
2019-03-26T06:19:15.162Z,16.87
2019-03-26T06:21:44.412Z,19.60
2019-03-26T06:24:14.037Z,15.00
2019-03-26T06:26:43.514Z,17.47
2019-03-26T06:29:13.704Z,14.83
2019-03-26T06:31:43.212Z,15.17
2019-03-26T06:34:13.096Z,21.40
2019-03-26T06:36:42.333Z,19.67
2019-03-26T06:39:11.677Z,20.17
2019-03-26T06:41:41.548Z,16.63
2019-03-26T06:44:10.881Z,19.73
2019-03-26T06:46:41.862Z,16.83
2019-03-26T06:49:11.241Z,21.67
2019-03-26T06:51:40.607Z,22.50
2019-03-26T06:54:10.266Z,20.90
2019-03-26T06:56:39.802Z,30.80
2019-03-26T06:59:09.527Z,26.87
2019-03-26T07:01:40.350Z,23.70
2019-03-26T07:04:09.954Z,22.40
2019-03-26T07:06:39.925Z,20.20
2019-03-26T07:09:09.371Z,29.50
2019-03-26T07:11:38.727Z,26.80
2019-03-26T07:14:08.352Z,25.07
2019-03-26T07:16:38.729Z,27.17
2019-03-26T07:19:08.735Z,24.73
2019-03-26T07:21:49.169Z,22.70
2019-03-26T07:24:09.796Z,24.23
2019-03-26T07:26:39.639Z,31.03
2019-03-26T07:29:09.533Z,22.13
2019-03-26T07:31:39.156Z,29.53
2019-03-26T07:34:08.795Z,18.70
2019-03-26T07:36:38.853Z,20.67
2019-03-26T07:39:08.920Z,18.20
2019-03-26T07:41:38.779Z,18.53
2019-03-26T07:44:08.045Z,13.90
2019-03-26T07:46:37.917Z,13.70
2019-03-26T07:49:07.726Z,13.43
2019-03-26T07:51:37.066Z,22.03
2019-03-26T07:54:06.766Z,17.80
2019-03-26T07:56:36.666Z,16.10
2019-03-26T07:59:10.217Z,12.67
2019-03-26T08:01:40.027Z,14.57
2019-03-26T08:04:12.586Z,18.43
2019-03-26T08:06:41.536Z,12.10
2019-03-26T08:09:11.306Z,13.00
2019-03-26T08:11:40.866Z,77.27
2019-03-26T08:14:10.533Z,15.40
2019-03-26T08:16:40.558Z,20.30
2019-03-26T08:19:09.913Z,14.43
2019-03-26T08:21:40.523Z,11.33
2019-03-26T08:24:10.078Z,12.33
2019-03-26T08:26:39.895Z,11.47
2019-03-26T08:29:09.251Z,9.50
2019-03-26T08:31:39.402Z,17.73
2019-03-26T08:34:09.273Z,16.97
2019-03-26T08:36:39.859Z,10.30
2019-03-26T08:39:09.519Z,15.60
2019-03-26T08:41:39.187Z,16.50
2019-03-26T08:44:09.329Z,10.73
2019-03-26T08:46:39.471Z,9.93
2019-03-26T08:49:08.841Z,10.43
2019-03-26T08:51:38.701Z,12.90
2019-03-26T08:54:08.886Z,15.13
2019-03-26T08:56:38.848Z,18.57
2019-03-26T08:59:08.454Z,15.90
2019-03-26T09:01:37.842Z,21.60
2019-03-26T09:04:07.550Z,11.10
2019-03-26T09:06:37.619Z,15.03
2019-03-26T09:09:08.062Z,12.87
2019-03-26T09:11:38.185Z,12.77
2019-03-26T09:14:07.760Z,14.83
2019-03-26T09:16:37.508Z,21.20
2019-03-26T09:19:07.491Z,12.50
2019-03-26T09:21:37.022Z,11.10
2019-03-26T09:24:07.203Z,40.37
2019-03-26T09:26:37.445Z,8.90
2019-03-26T09:29:06.718Z,14.70
2019-03-26T09:31:36.762Z,12.10
2019-03-26T09:34:08.652Z,10.40
2019-03-26T09:36:38.252Z,7.83
2019-03-26T09:39:08.579Z,10.90
2019-03-26T09:41:38.561Z,8.00
2019-03-26T09:44:08.368Z,9.90
2019-03-26T09:46:38.014Z,6.20
2019-03-26T09:49:08.351Z,8.70
2019-03-26T09:51:38.117Z,22.77
2019-03-26T09:54:07.789Z,7.70
2019-03-26T09:56:37.187Z,9.90
2019-03-26T09:59:06.903Z,9.97
2019-03-26T10:01:36.662Z,8.80
2019-03-26T10:04:06.347Z,16.27
2019-03-26T10:06:35.929Z,10.03
2019-03-26T10:09:06.859Z,11.37
2019-03-26T10:11:37.237Z,10.57
2019-03-26T10:14:06.924Z,8.10
2019-03-26T10:16:36.632Z,11.63
2019-03-26T10:19:06.276Z,10.53
2019-03-26T10:21:35.998Z,6.90
2019-03-26T10:24:06.350Z,7.90
2019-03-26T10:26:36.418Z,9.63
2019-03-26T10:29:23.917Z,10.33
2019-03-26T10:31:38.082Z,8.20
2019-03-26T10:34:07.454Z,10.97
2019-03-26T10:36:37.524Z,17.03
2019-03-26T10:39:08.085Z,7.03
2019-03-26T10:41:38.425Z,4.93
2019-03-26T10:44:07.973Z,6.10
2019-03-26T10:46:37.326Z,7.57
2019-03-26T10:49:07.378Z,9.97
2019-03-26T10:51:36.873Z,9.70
2019-03-26T10:54:06.622Z,7.13
2019-03-26T10:56:36.549Z,5.80
2019-03-26T10:59:06.824Z,7.80
2019-03-26T11:01:36.093Z,7.50
2019-03-26T11:04:07.742Z,4.90
2019-03-26T11:06:37.078Z,23.17
2019-03-26T11:09:19.999Z,6.53
2019-03-26T11:11:39.372Z,6.07
2019-03-26T11:14:09.312Z,6.73
2019-03-26T11:16:39.156Z,7.50
2019-03-26T11:19:08.873Z,7.40
2019-03-26T11:21:38.386Z,4.80
2019-03-26T11:24:07.858Z,8.07
2019-03-26T11:26:37.655Z,6.47
2019-03-26T11:29:06.974Z,7.13
2019-03-26T11:31:36.629Z,8.37
2019-03-26T11:34:07.258Z,6.60
2019-03-26T11:36:36.837Z,7.87
2019-03-26T11:39:06.657Z,7.73
2019-03-26T11:41:36.343Z,11.83
2019-03-26T11:44:06.400Z,7.00
2019-03-26T11:46:36.290Z,8.40
2019-03-26T11:49:06.313Z,8.50
2019-03-26T11:51:35.998Z,6.57
2019-03-26T11:54:06.212Z,10.00
2019-03-26T11:56:35.544Z,7.90
2019-03-26T11:59:04.847Z,6.97
2019-03-26T12:01:34.118Z,5.83
2019-03-26T12:04:03.434Z,5.80
2019-03-26T12:06:33.857Z,6.00
2019-03-26T12:09:03.277Z,6.43
2019-03-26T12:11:33.455Z,8.20
2019-03-26T12:14:03.536Z,9.10
2019-03-26T12:16:33.253Z,10.03
2019-03-26T12:19:03.070Z,9.07
2019-03-26T12:21:33.185Z,3.70
2019-03-26T12:24:02.675Z,7.50
2019-03-26T12:26:32.933Z,5.03
2019-03-26T12:29:02.418Z,8.87
2019-03-26T12:31:31.829Z,6.67
2019-03-26T12:34:01.641Z,6.47
2019-03-26T12:36:39.717Z,9.20
2019-03-26T12:39:02.358Z,6.20
2019-03-26T12:41:31.917Z,6.70
2019-03-26T12:44:02.041Z,6.07
2019-03-26T12:46:32.403Z,5.67
2019-03-26T12:49:02.461Z,6.83
2019-03-26T12:51:32.178Z,5.00
2019-03-26T12:54:02.610Z,9.93
2019-03-26T12:56:33.378Z,7.67
2019-03-26T12:59:03.440Z,5.60
2019-03-26T13:01:33.162Z,5.80
2019-03-26T13:04:12.533Z,4.83
2019-03-26T16:28:55.012Z,9.73
2019-03-26T16:31:31.168Z,9.93
2019-03-26T16:34:01.831Z,7.57
2019-03-26T16:36:36.706Z,6.83
2019-03-26T16:39:07.760Z,7.53
2019-03-26T16:41:48.293Z,8.23
2019-03-26T16:44:22.941Z,5.30
2019-03-26T16:52:55.469Z,10.80
2019-03-26T16:55:32.066Z,8.73
2019-03-26T16:58:02.188Z,13.70
2019-03-26T17:00:34.188Z,5.70
2019-03-26T17:06:45.118Z,12.30
2019-03-26T17:09:48.607Z,9.30
2019-03-26T17:12:31.143Z,8.27
2019-03-26T17:15:30.573Z,8.87
2019-03-26T17:18:09.624Z,7.10
2019-03-26T17:20:45.880Z,9.80
2019-03-26T17:23:21.900Z,9.43
2019-03-26T17:25:52.251Z,9.23
2019-03-26T17:28:44.847Z,6.80
2019-03-26T17:31:15.179Z,5.50
2019-03-26T17:33:47.931Z,10.63
2019-03-26T17:36:22.786Z,17.70
2019-03-26T17:39:03.783Z,7.97
2019-03-26T17:41:34.206Z,7.40
2019-03-26T17:44:04.090Z,7.47
2019-03-26T17:46:35.971Z,9.43
2019-03-26T17:49:06.822Z,7.90
2019-03-26T20:03:47.076Z,10.53
2019-03-26T20:06:16.974Z,11.40
2019-03-26T20:08:47.338Z,12.67
2019-03-26T20:11:16.945Z,12.03
2019-03-26T20:13:47.070Z,15.00
2019-03-26T20:16:18.388Z,8.23
2019-03-26T20:18:49.020Z,10.70
2019-03-26T20:21:19.090Z,13.57
2019-03-26T20:23:48.800Z,15.97
2019-03-26T20:26:18.763Z,8.47
2019-03-26T20:28:48.792Z,8.10
2019-03-26T20:31:19.800Z,10.60
2019-03-26T20:33:49.272Z,11.67
2019-03-26T20:36:31.052Z,13.67
2019-03-26T20:39:01.607Z,11.00
2019-03-26T20:41:31.338Z,11.20
2019-03-26T20:44:01.748Z,20.53
2019-03-26T20:46:31.455Z,12.47
2019-03-26T20:49:01.414Z,27.07
2019-03-26T20:51:31.787Z,14.57
2019-03-26T20:54:01.464Z,16.33
2019-03-26T20:56:31.387Z,12.10
2019-03-26T20:59:01.096Z,12.63
2019-03-26T21:01:30.399Z,10.33
2019-03-26T21:04:00.373Z,10.47
2019-03-26T21:06:30.432Z,17.00
2019-03-26T21:08:59.932Z,11.27
2019-03-26T21:11:29.366Z,11.80
2019-03-26T21:13:59.277Z,12.13
2019-03-26T21:16:28.745Z,13.40
2019-03-26T21:18:58.394Z,17.63
2019-03-26T21:21:28.079Z,12.43
2019-03-26T21:23:57.658Z,15.90
2019-03-26T21:26:27.340Z,8.33
2019-03-26T21:28:57.056Z,15.20
2019-03-26T21:31:27.337Z,10.20
2019-03-26T21:33:57.251Z,10.77
2019-03-26T21:36:27.486Z,11.10
2019-03-26T21:38:57.633Z,10.60
2019-03-26T21:41:27.410Z,9.37
2019-03-26T21:44:04.211Z,15.00
2019-03-26T21:46:29.579Z,20.80
2019-03-26T21:48:59.948Z,14.07
2019-03-26T21:51:32.869Z,11.70
2019-03-26T21:54:02.303Z,12.70
2019-03-26T21:56:32.157Z,14.90
2019-03-26T21:59:04.832Z,11.93
2019-03-26T22:01:35.332Z,13.13
2019-03-26T22:04:05.260Z,18.97
2019-03-26T22:06:35.127Z,11.47
2019-03-26T22:09:06.453Z,11.93
2019-03-26T22:11:48.801Z,11.43
2019-03-26T22:14:17.411Z,14.63
2019-03-26T22:16:39.415Z,11.63
2019-03-26T22:19:09.025Z,12.90
2019-03-26T22:21:39.653Z,12.70
2019-03-26T22:24:10.810Z,14.07
2019-03-26T22:26:40.831Z,14.20
2019-03-26T22:29:10.991Z,12.33
2019-03-26T22:31:40.878Z,24.23
2019-03-26T22:34:12.297Z,14.47
2019-03-26T22:36:42.119Z,12.87
2019-03-26T22:39:11.759Z,15.43
2019-03-26T22:41:41.157Z,22.20
2019-03-26T22:44:10.506Z,24.63
2019-03-26T22:46:41.855Z,15.17
2019-03-26T22:49:11.844Z,21.30
2019-03-26T22:51:42.174Z,19.80
2019-03-26T22:54:11.866Z,13.97
2019-03-26T22:56:41.385Z,15.43
2019-03-26T22:59:11.274Z,16.73
2019-03-26T23:01:41.738Z,17.07
2019-03-26T23:04:11.573Z,14.50
2019-03-26T23:06:41.623Z,16.17
2019-03-26T23:09:11.623Z,17.70
2019-03-26T23:11:41.091Z,17.67
2019-03-26T23:14:10.741Z,24.17
2019-03-26T23:16:40.002Z,17.37
2019-03-26T23:19:09.702Z,11.57
2019-03-26T23:21:39.143Z,17.17
2019-03-26T23:24:09.245Z,15.03
2019-03-26T23:26:38.990Z,16.80
2019-03-26T23:29:08.311Z,17.40
2019-03-26T23:31:37.881Z,21.93
2019-03-26T23:34:07.944Z,15.33
2019-03-26T23:36:37.414Z,24.47
2019-03-26T23:39:07.340Z,15.03
2019-03-26T23:41:39.704Z,15.37
2019-03-26T23:44:09.422Z,22.03
2019-03-26T23:46:38.775Z,17.60
2019-03-26T23:49:08.249Z,21.73
2019-03-26T23:51:37.542Z,30.93
2019-03-26T23:54:07.571Z,22.80
2019-03-26T23:56:37.804Z,20.40
2019-03-26T23:59:08.082Z,19.00
